sensor_id;sensor_type;location;lat;lon;timestamp;P1;durP1;ratioP1;P2;durP2;ratioP2
16699;SDS011;8466;52.286;21.124;2023-01-01T00:00:46;35.97;;;33.07;;
16699;SDS011;8466;52.286;21.124;2023-01-01T00:03:15;37.67;;;34.70;;
16699;SDS011;8466;52.286;21.124;2023-01-01T00:05:44;34.23;;;31.57;;
16699;SDS011;8466;52.286;21.124;2023-01-01T00:08:14;32.20;;;29.57;;
16699;SDS011;8466;52.286;21.124;2023-01-01T00:10:43;28.90;;;26.60;;
16699;SDS011;8466;52.286;21.124;2023-01-01T00:13:12;32.83;;;30.23;;
16699;SDS011;8466;52.286;21.124;2023-01-01T00:15:41;28.47;;;26.33;;
16699;SDS011;8466;52.286;21.124;2023-01-01T00:18:09;24.40;;;22.60;;
16699;SDS011;8466;52.286;21.124;2023-01-01T00:20:49;28.13;;;26.03;;
16699;SDS011;8466;52.286;21.124;2023-01-01T00:23:20;30.57;;;28.20;;
16699;SDS011;8466;52.286;21.124;2023-01-01T00:25:49;34.43;;;31.97;;
16699;SDS011;8466;52.286;21.124;2023-01-01T00:28:17;29.33;;;27.23;;
16699;SDS011;8466;52.286;21.124;2023-01-01T00:30:46;29.17;;;27.23;;
16699;SDS011;8466;52.286;21.124;2023-01-01T00:33:14;29.67;;;27.80;;
16699;SDS011;8466;52.286;21.124;2023-01-01T00:35:43;25.43;;;23.70;;
16699;SDS011;8466;52.286;21.124;2023-01-01T00:38:12;23.70;;;22.10;;
16699;SDS011;8466;52.286;21.124;2023-01-01T00:40:42;28.07;;;26.37;;
16699;SDS011;8466;52.286;21.124;2023-01-01T00:43:11;20.97;;;19.60;;
16699;SDS011;8466;52.286;21.124;2023-01-01T00:45:40;21.53;;;19.93;;
16699;SDS011;8466;52.286;21.124;2023-01-01T00:48:13;26.33;;;24.53;;
16699;SDS011;8466;52.286;21.124;2023-01-01T00:50:42;23.83;;;21.83;;
16699;SDS011;8466;52.286;21.124;2023-01-01T00:53:10;25.17;;;23.57;;
16699;SDS011;8466;52.286;21.124;2023-01-01T00:55:39;23.57;;;21.87;;
16699;SDS011;8466;52.286;21.124;2023-01-01T00:58:10;19.93;;;18.57;;
16699;SDS011;8466;52.286;21.124;2023-01-01T01:00:39;36.17;;;34.10;;
16699;SDS011;8466;52.286;21.124;2023-01-01T01:03:09;32.87;;;30.73;;
16699;SDS011;8466;52.286;21.124;2023-01-01T01:05:54;17.47;;;16.13;;
16699;SDS011;8466;52.286;21.124;2023-01-01T01:08:23;18.93;;;17.63;;
16699;SDS011;8466;52.286;21.124;2023-01-01T01:11:02;18.67;;;17.33;;
16699;SDS011;8466;52.286;21.124;2023-01-01T01:13:36;18.90;;;17.53;;
16699;SDS011;8466;52.286;21.124;2023-01-01T01:16:09;21.47;;;20.17;;
16699;SDS011;8466;52.286;21.124;2023-01-01T01:18:38;21.67;;;20.17;;
16699;SDS011;8466;52.286;21.124;2023-01-01T01:21:07;19.33;;;17.93;;
16699;SDS011;8466;52.286;21.124;2023-01-01T01:23:36;19.23;;;18.03;;
16699;SDS011;8466;52.286;21.124;2023-01-01T01:26:08;20.23;;;18.80;;
16699;SDS011;8466;52.286;21.124;2023-01-01T01:28:40;21.60;;;20.13;;
16699;SDS011;8466;52.286;21.124;2023-01-01T01:31:15;23.93;;;22.43;;
16699;SDS011;8466;52.286;21.124;2023-01-01T01:33:44;24.27;;;22.67;;
16699;SDS011;8466;52.286;21.124;2023-01-01T01:36:14;23.70;;;22.23;;
16699;SDS011;8466;52.286;21.124;2023-01-01T01:38:43;25.43;;;23.83;;
16699;SDS011;8466;52.286;21.124;2023-01-01T01:41:12;25.03;;;23.53;;
16699;SDS011;8466;52.286;21.124;2023-01-01T01:43:55;23.73;;;22.13;;
16699;SDS011;8466;52.286;21.124;2023-01-01T01:46:30;22.00;;;20.60;;
16699;SDS011;8466;52.286;21.124;2023-01-01T01:49:02;28.47;;;26.83;;
16699;SDS011;8466;52.286;21.124;2023-01-01T01:51:33;26.83;;;25.00;;
16699;SDS011;8466;52.286;21.124;2023-01-01T01:54:06;26.73;;;25.03;;
16699;SDS011;8466;52.286;21.124;2023-01-01T01:56:40;25.97;;;24.27;;
16699;SDS011;8466;52.286;21.124;2023-01-01T01:59:15;24.87;;;23.37;;
16699;SDS011;8466;52.286;21.124;2023-01-01T02:01:47;25.57;;;23.97;;
16699;SDS011;8466;52.286;21.124;2023-01-01T02:04:16;29.77;;;27.90;;
16699;SDS011;8466;52.286;21.124;2023-01-01T02:06:45;28.10;;;26.50;;
16699;SDS011;8466;52.286;21.124;2023-01-01T02:09:14;24.43;;;22.93;;
16699;SDS011;8466;52.286;21.124;2023-01-01T02:11:44;31.03;;;29.13;;
16699;SDS011;8466;52.286;21.124;2023-01-01T02:14:13;26.20;;;24.60;;
16699;SDS011;8466;52.286;21.124;2023-01-01T02:16:43;30.27;;;28.50;;
16699;SDS011;8466;52.286;21.124;2023-01-01T02:19:17;27.17;;;25.47;;
16699;SDS011;8466;52.286;21.124;2023-01-01T02:21:58;28.80;;;27.10;;
16699;SDS011;8466;52.286;21.124;2023-01-01T02:24:42;29.40;;;27.70;;
16699;SDS011;8466;52.286;21.124;2023-01-01T02:27:23;27.47;;;25.87;;
16699;SDS011;8466;52.286;21.124;2023-01-01T02:30:01;31.37;;;29.50;;
16699;SDS011;8466;52.286;21.124;2023-01-01T02:32:33;29.43;;;27.67;;
16699;SDS011;8466;52.286;21.124;2023-01-01T02:35:07;31.30;;;29.47;;
16699;SDS011;8466;52.286;21.124;2023-01-01T02:37:59;35.87;;;33.57;;
16699;SDS011;8466;52.286;21.124;2023-01-01T02:40:33;31.17;;;29.37;;
16699;SDS011;8466;52.286;21.124;2023-01-01T02:43:07;30.73;;;28.93;;
16699;SDS011;8466;52.286;21.124;2023-01-01T02:45:37;27.50;;;25.90;;
16699;SDS011;8466;52.286;21.124;2023-01-01T02:48:32;31.00;;;29.30;;
16699;SDS011;8466;52.286;21.124;2023-01-01T02:51:08;34.50;;;32.47;;
16699;SDS011;8466;52.286;21.124;2023-01-01T02:53:46;33.60;;;31.70;;
16699;SDS011;8466;52.286;21.124;2023-01-01T02:56:25;40.57;;;38.30;;
16699;SDS011;8466;52.286;21.124;2023-01-01T02:59:02;36.97;;;34.90;;
16699;SDS011;8466;52.286;21.124;2023-01-01T03:02:09;50.63;;;47.80;;
16699;SDS011;8466;52.286;21.124;2023-01-01T03:04:47;40.37;;;38.03;;
16699;SDS011;8466;52.286;21.124;2023-01-01T03:07:23;45.00;;;42.50;;
16699;SDS011;8466;52.286;21.124;2023-01-01T03:10:02;45.50;;;43.03;;
16699;SDS011;8466;52.286;21.124;2023-01-01T03:12:42;41.20;;;38.90;;
16699;SDS011;8466;52.286;21.124;2023-01-01T03:15:18;48.37;;;45.67;;
16699;SDS011;8466;52.286;21.124;2023-01-01T03:17:53;41.67;;;39.30;;
16699;SDS011;8466;52.286;21.124;2023-01-01T03:20:26;45.40;;;42.93;;
16699;SDS011;8466;52.286;21.124;2023-01-01T03:23:01;40.77;;;38.53;;
16699;SDS011;8466;52.286;21.124;2023-01-01T03:25:35;38.53;;;36.33;;
16699;SDS011;8466;52.286;21.124;2023-01-01T03:28:09;35.07;;;33.10;;
16699;SDS011;8466;52.286;21.124;2023-01-01T03:30:42;33.77;;;31.87;;
16699;SDS011;8466;52.286;21.124;2023-01-01T03:33:17;29.03;;;27.43;;
16699;SDS011;8466;52.286;21.124;2023-01-01T03:35:54;33.97;;;31.87;;
16699;SDS011;8466;52.286;21.124;2023-01-01T03:38:28;33.27;;;31.20;;
16699;SDS011;8466;52.286;21.124;2023-01-01T03:41:02;35.67;;;33.63;;
16699;SDS011;8466;52.286;21.124;2023-01-01T03:43:38;33.57;;;31.67;;
16699;SDS011;8466;52.286;21.124;2023-01-01T03:46:11;36.20;;;34.13;;
16699;SDS011;8466;52.286;21.124;2023-01-01T03:48:45;31.93;;;30.13;;
16699;SDS011;8466;52.286;21.124;2023-01-01T03:51:35;26.17;;;24.70;;
16699;SDS011;8466;52.286;21.124;2023-01-01T03:54:24;28.77;;;27.13;;
16699;SDS011;8466;52.286;21.124;2023-01-01T03:57:03;24.87;;;23.47;;
16699;SDS011;8466;52.286;21.124;2023-01-01T03:59:39;31.30;;;29.57;;
16699;SDS011;8466;52.286;21.124;2023-01-01T04:02:15;52.27;;;49.43;;
16699;SDS011;8466;52.286;21.124;2023-01-01T04:04:49;43.90;;;41.43;;
16699;SDS011;8466;52.286;21.124;2023-01-01T04:07:18;57.43;;;54.27;;
16699;SDS011;8466;52.286;21.124;2023-01-01T04:09:48;47.60;;;44.97;;
16699;SDS011;8466;52.286;21.124;2023-01-01T04:12:18;56.57;;;53.57;;
16699;SDS011;8466;52.286;21.124;2023-01-01T04:14:48;53.57;;;50.67;;
16699;SDS011;8466;52.286;21.124;2023-01-01T04:17:17;54.08;;;51.10;;
16699;SDS011;8466;52.286;21.124;2023-01-01T04:19:46;30.07;;;28.33;;
16699;SDS011;8466;52.286;21.124;2023-01-01T04:22:22;56.17;;;53.20;;
16699;SDS011;8466;52.286;21.124;2023-01-01T04:24:51;59.07;;;55.90;;
16699;SDS011;8466;52.286;21.124;2023-01-01T04:27:20;74.43;;;70.37;;
16699;SDS011;8466;52.286;21.124;2023-01-01T04:29:49;54.10;;;51.07;;
16699;SDS011;8466;52.286;21.124;2023-01-01T04:32:18;55.20;;;52.10;;
16699;SDS011;8466;52.286;21.124;2023-01-01T04:34:48;54.37;;;51.47;;
16699;SDS011;8466;52.286;21.124;2023-01-01T04:37:16;48.70;;;45.90;;
16699;SDS011;8466;52.286;21.124;2023-01-01T04:39:47;44.67;;;42.10;;
16699;SDS011;8466;52.286;21.124;2023-01-01T04:42:15;42.23;;;39.83;;
16699;SDS011;8466;52.286;21.124;2023-01-01T04:44:44;46.83;;;44.17;;
16699;SDS011;8466;52.286;21.124;2023-01-01T04:47:14;56.83;;;53.53;;
16699;SDS011;8466;52.286;21.124;2023-01-01T04:49:43;40.17;;;37.77;;
16699;SDS011;8466;52.286;21.124;2023-01-01T04:52:14;44.40;;;41.80;;
16699;SDS011;8466;52.286;21.124;2023-01-01T04:54:43;39.93;;;37.67;;
16699;SDS011;8466;52.286;21.124;2023-01-01T04:57:15;43.63;;;41.30;;
16699;SDS011;8466;52.286;21.124;2023-01-01T04:59:44;45.87;;;43.10;;
16699;SDS011;8466;52.286;21.124;2023-01-01T05:02:13;39.33;;;37.20;;
16699;SDS011;8466;52.286;21.124;2023-01-01T05:04:42;42.77;;;40.17;;
16699;SDS011;8466;52.286;21.124;2023-01-01T05:07:11;44.63;;;42.30;;
16699;SDS011;8466;52.286;21.124;2023-01-01T05:09:40;40.23;;;38.03;;
16699;SDS011;8466;52.286;21.124;2023-01-01T05:12:08;36.03;;;34.07;;
16699;SDS011;8466;52.286;21.124;2023-01-01T05:14:39;38.23;;;36.07;;
16699;SDS011;8466;52.286;21.124;2023-01-01T05:17:07;31.17;;;29.23;;
16699;SDS011;8466;52.286;21.124;2023-01-01T05:19:36;25.13;;;23.70;;
16699;SDS011;8466;52.286;21.124;2023-01-01T05:22:05;21.17;;;19.90;;
16699;SDS011;8466;52.286;21.124;2023-01-01T05:24:36;28.90;;;27.33;;
16699;SDS011;8466;52.286;21.124;2023-01-01T05:27:05;29.10;;;27.37;;
16699;SDS011;8466;52.286;21.124;2023-01-01T05:29:34;27.63;;;26.07;;
16699;SDS011;8466;52.286;21.124;2023-01-01T05:32:04;26.73;;;25.00;;
16699;SDS011;8466;52.286;21.124;2023-01-01T05:34:35;27.57;;;25.87;;
16699;SDS011;8466;52.286;21.124;2023-01-01T05:37:02;34.50;;;32.27;;
16699;SDS011;8466;52.286;21.124;2023-01-01T05:39:32;33.90;;;31.97;;
16699;SDS011;8466;52.286;21.124;2023-01-01T05:42:00;35.00;;;32.90;;
16699;SDS011;8466;52.286;21.124;2023-01-01T05:44:29;37.37;;;35.23;;
16699;SDS011;8466;52.286;21.124;2023-01-01T05:47:02;38.40;;;36.23;;
16699;SDS011;8466;52.286;21.124;2023-01-01T05:49:33;38.13;;;35.90;;
16699;SDS011;8466;52.286;21.124;2023-01-01T05:52:02;40.10;;;37.70;;
16699;SDS011;8466;52.286;21.124;2023-01-01T05:54:31;33.43;;;31.60;;
16699;SDS011;8466;52.286;21.124;2023-01-01T05:57:00;29.63;;;27.80;;
16699;SDS011;8466;52.286;21.124;2023-01-01T05:59:30;37.30;;;35.10;;
16699;SDS011;8466;52.286;21.124;2023-01-01T06:01:59;33.33;;;31.27;;
16699;SDS011;8466;52.286;21.124;2023-01-01T06:04:30;25.03;;;23.53;;
16699;SDS011;8466;52.286;21.124;2023-01-01T06:07:02;28.57;;;27.03;;
16699;SDS011;8466;52.286;21.124;2023-01-01T06:09:33;32.07;;;30.30;;
16699;SDS011;8466;52.286;21.124;2023-01-01T06:12:01;25.23;;;23.73;;
16699;SDS011;8466;52.286;21.124;2023-01-01T06:14:30;42.37;;;39.60;;
16699;SDS011;8466;52.286;21.124;2023-01-01T06:16:59;31.20;;;29.37;;
16699;SDS011;8466;52.286;21.124;2023-01-01T06:19:28;36.80;;;34.70;;
16699;SDS011;8466;52.286;21.124;2023-01-01T06:21:58;31.80;;;29.70;;
16699;SDS011;8466;52.286;21.124;2023-01-01T06:24:26;35.17;;;32.87;;
16699;SDS011;8466;52.286;21.124;2023-01-01T06:27:04;27.77;;;26.13;;
16699;SDS011;8466;52.286;21.124;2023-01-01T06:29:32;26.20;;;24.63;;
16699;SDS011;8466;52.286;21.124;2023-01-01T06:32:01;28.57;;;26.97;;
16699;SDS011;8466;52.286;21.124;2023-01-01T06:34:31;24.07;;;22.33;;
16699;SDS011;8466;52.286;21.124;2023-01-01T06:37:00;30.47;;;28.60;;
16699;SDS011;8466;52.286;21.124;2023-01-01T06:39:32;39.40;;;36.63;;
16699;SDS011;8466;52.286;21.124;2023-01-01T06:42:01;33.77;;;31.73;;
16699;SDS011;8466;52.286;21.124;2023-01-01T06:44:30;32.27;;;30.37;;
16699;SDS011;8466;52.286;21.124;2023-01-01T06:46:59;39.93;;;37.73;;
16699;SDS011;8466;52.286;21.124;2023-01-01T06:49:28;41.83;;;39.53;;
16699;SDS011;8466;52.286;21.124;2023-01-01T06:51:58;45.00;;;42.40;;
16699;SDS011;8466;52.286;21.124;2023-01-01T06:54:27;52.33;;;49.33;;
16699;SDS011;8466;52.286;21.124;2023-01-01T06:56:58;46.23;;;43.60;;
16699;SDS011;8466;52.286;21.124;2023-01-01T06:59:26;40.10;;;37.60;;
16699;SDS011;8466;52.286;21.124;2023-01-01T07:01:55;38.70;;;36.47;;
16699;SDS011;8466;52.286;21.124;2023-01-01T07:04:24;32.93;;;31.07;;
16699;SDS011;8466;52.286;21.124;2023-01-01T07:06:52;35.47;;;33.40;;
16699;SDS011;8466;52.286;21.124;2023-01-01T07:09:22;24.00;;;22.60;;
16699;SDS011;8466;52.286;21.124;2023-01-01T07:11:51;26.83;;;25.00;;
16699;SDS011;8466;52.286;21.124;2023-01-01T07:14:19;35.00;;;32.63;;
16699;SDS011;8466;52.286;21.124;2023-01-01T07:16:48;35.37;;;33.23;;
16699;SDS011;8466;52.286;21.124;2023-01-01T07:19:17;32.60;;;30.63;;
16699;SDS011;8466;52.286;21.124;2023-01-01T07:21:48;34.73;;;32.50;;
16699;SDS011;8466;52.286;21.124;2023-01-01T07:24:19;34.73;;;32.87;;
16699;SDS011;8466;52.286;21.124;2023-01-01T07:26:49;34.57;;;32.17;;
16699;SDS011;8466;52.286;21.124;2023-01-01T07:29:18;32.87;;;30.73;;
16699;SDS011;8466;52.286;21.124;2023-01-01T07:31:47;26.77;;;25.03;;
16699;SDS011;8466;52.286;21.124;2023-01-01T07:34:16;22.60;;;21.20;;
16699;SDS011;8466;52.286;21.124;2023-01-01T07:36:45;32.40;;;29.60;;
16699;SDS011;8466;52.286;21.124;2023-01-01T07:39:14;31.13;;;28.60;;
16699;SDS011;8466;52.286;21.124;2023-01-01T07:41:43;25.23;;;23.67;;
16699;SDS011;8466;52.286;21.124;2023-01-01T07:44:12;29.80;;;28.03;;
16699;SDS011;8466;52.286;21.124;2023-01-01T07:46:41;41.40;;;39.07;;
16699;SDS011;8466;52.286;21.124;2023-01-01T07:49:10;40.83;;;38.37;;
16699;SDS011;8466;52.286;21.124;2023-01-01T07:51:39;39.13;;;36.80;;
16699;SDS011;8466;52.286;21.124;2023-01-01T07:54:08;31.13;;;29.10;;
16699;SDS011;8466;52.286;21.124;2023-01-01T07:56:36;35.67;;;33.60;;
16699;SDS011;8466;52.286;21.124;2023-01-01T07:59:05;33.33;;;31.37;;
16699;SDS011;8466;52.286;21.124;2023-01-01T08:01:36;34.87;;;32.50;;
16699;SDS011;8466;52.286;21.124;2023-01-01T08:04:05;35.00;;;32.63;;
16699;SDS011;8466;52.286;21.124;2023-01-01T08:06:34;34.77;;;32.57;;
16699;SDS011;8466;52.286;21.124;2023-01-01T08:09:04;41.07;;;38.60;;
16699;SDS011;8466;52.286;21.124;2023-01-01T08:11:32;38.40;;;36.07;;
16699;SDS011;8466;52.286;21.124;2023-01-01T08:14:01;43.43;;;40.70;;
16699;SDS011;8466;52.286;21.124;2023-01-01T08:16:30;44.40;;;41.93;;
16699;SDS011;8466;52.286;21.124;2023-01-01T08:19:00;60.53;;;56.83;;
16699;SDS011;8466;52.286;21.124;2023-01-01T08:21:29;60.53;;;57.07;;
16699;SDS011;8466;52.286;21.124;2023-01-01T08:23:58;67.33;;;63.53;;
16699;SDS011;8466;52.286;21.124;2023-01-01T08:26:27;62.20;;;58.60;;
16699;SDS011;8466;52.286;21.124;2023-01-01T08:28:57;57.43;;;53.97;;
16699;SDS011;8466;52.286;21.124;2023-01-01T08:31:28;57.20;;;53.80;;
16699;SDS011;8466;52.286;21.124;2023-01-01T08:33:57;53.03;;;49.97;;
16699;SDS011;8466;52.286;21.124;2023-01-01T08:36:27;53.23;;;49.97;;
16699;SDS011;8466;52.286;21.124;2023-01-01T08:38:56;52.67;;;49.50;;
16699;SDS011;8466;52.286;21.124;2023-01-01T08:41:24;54.47;;;51.30;;
16699;SDS011;8466;52.286;21.124;2023-01-01T08:43:53;58.63;;;55.23;;
16699;SDS011;8466;52.286;21.124;2023-01-01T08:46:21;62.33;;;58.40;;
16699;SDS011;8466;52.286;21.124;2023-01-01T08:48:50;50.97;;;47.97;;
16699;SDS011;8466;52.286;21.124;2023-01-01T08:51:18;51.80;;;48.93;;
16699;SDS011;8466;52.286;21.124;2023-01-01T08:53:49;10.57;;;9.87;;
16699;SDS011;8466;52.286;21.124;2023-01-01T08:56:17;11.57;;;10.67;;
16699;SDS011;8466;52.286;21.124;2023-01-01T08:58:46;106.00;;;99.35;;
16699;SDS011;8466;52.286;21.124;2023-01-01T09:01:15;205.87;;;194.27;;
16699;SDS011;8466;52.286;21.124;2023-01-01T09:03:47;27.83;;;25.80;;
16699;SDS011;8466;52.286;21.124;2023-01-01T09:06:16;10.73;;;9.90;;
16699;SDS011;8466;52.286;21.124;2023-01-01T09:08:44;177.43;;;165.50;;
16699;SDS011;8466;52.286;21.124;2023-01-01T09:11:17;40.00;;;37.27;;
16699;SDS011;8466;52.286;21.124;2023-01-01T09:13:49;12.27;;;11.32;;
16699;SDS011;8466;52.286;21.124;2023-01-01T09:16:18;15.90;;;14.70;;
16699;SDS011;8466;52.286;21.124;2023-01-01T09:18:48;16.27;;;15.10;;
16699;SDS011;8466;52.286;21.124;2023-01-01T09:21:16;17.92;;;16.70;;
16699;SDS011;8466;52.286;21.124;2023-01-01T09:23:45;19.57;;;18.00;;
16699;SDS011;8466;52.286;21.124;2023-01-01T09:26:15;18.13;;;16.83;;
16699;SDS011;8466;52.286;21.124;2023-01-01T09:28:46;16.02;;;14.98;;
16699;SDS011;8466;52.286;21.124;2023-01-01T09:31:14;19.58;;;18.30;;
16699;SDS011;8466;52.286;21.124;2023-01-01T09:33:43;320.13;;;301.75;;
16699;SDS011;8466;52.286;21.124;2023-01-01T09:36:13;272.35;;;256.70;;
16699;SDS011;8466;52.286;21.124;2023-01-01T09:38:53;124.88;;;117.18;;
16699;SDS011;8466;52.286;21.124;2023-01-01T09:41:26;83.93;;;78.65;;
16699;SDS011;8466;52.286;21.124;2023-01-01T09:44:06;53.03;;;49.67;;
16699;SDS011;8466;52.286;21.124;2023-01-01T09:46:44;40.40;;;37.70;;
16699;SDS011;8466;52.286;21.124;2023-01-01T09:49:14;20.83;;;19.35;;
16699;SDS011;8466;52.286;21.124;2023-01-01T09:51:47;13.98;;;12.85;;
16699;SDS011;8466;52.286;21.124;2023-01-01T09:54:24;13.30;;;11.98;;
16699;SDS011;8466;52.286;21.124;2023-01-01T09:56:58;11.70;;;10.77;;
16699;SDS011;8466;52.286;21.124;2023-01-01T09:59:29;12.27;;;11.27;;
16699;SDS011;8466;52.286;21.124;2023-01-01T10:01:59;11.90;;;11.00;;
16699;SDS011;8466;52.286;21.124;2023-01-01T10:04:41;12.88;;;11.88;;
16699;SDS011;8466;52.286;21.124;2023-01-01T10:07:22;12.35;;;10.98;;
16699;SDS011;8466;52.286;21.124;2023-01-01T10:09:57;10.95;;;9.93;;
16699;SDS011;8466;52.286;21.124;2023-01-01T10:12:33;11.88;;;10.68;;
16699;SDS011;8466;52.286;21.124;2023-01-01T10:15:09;12.23;;;11.23;;
16699;SDS011;8466;52.286;21.124;2023-01-01T10:17:41;13.18;;;12.00;;
16699;SDS011;8466;52.286;21.124;2023-01-01T10:20:15;14.60;;;13.10;;
16699;SDS011;8466;52.286;21.124;2023-01-01T10:22:47;12.25;;;11.10;;
16699;SDS011;8466;52.286;21.124;2023-01-01T10:25:20;13.45;;;12.25;;
16699;SDS011;8466;52.286;21.124;2023-01-01T10:27:56;12.60;;;11.52;;
16699;SDS011;8466;52.286;21.124;2023-01-01T10:30:27;13.70;;;12.45;;
16699;SDS011;8466;52.286;21.124;2023-01-01T10:32:57;305.02;;;284.35;;
16699;SDS011;8466;52.286;21.124;2023-01-01T10:35:32;14.48;;;13.38;;
16699;SDS011;8466;52.286;21.124;2023-01-01T10:38:02;506.30;;;471.25;;
16699;SDS011;8466;52.286;21.124;2023-01-01T10:40:32;15.35;;;14.02;;
16699;SDS011;8466;52.286;21.124;2023-01-01T10:43:02;16.63;;;15.30;;
16699;SDS011;8466;52.286;21.124;2023-01-01T10:45:33;18.17;;;16.60;;
16699;SDS011;8466;52.286;21.124;2023-01-01T10:48:15;19.05;;;17.33;;
16699;SDS011;8466;52.286;21.124;2023-01-01T10:50:47;17.77;;;16.52;;
16699;SDS011;8466;52.286;21.124;2023-01-01T10:53:24;20.20;;;18.77;;
16699;SDS011;8466;52.286;21.124;2023-01-01T10:58:45;17.58;;;15.93;;
16699;SDS011;8466;52.286;21.124;2023-01-01T11:01:18;18.33;;;16.73;;
16699;SDS011;8466;52.286;21.124;2023-01-01T11:03:52;17.30;;;15.70;;
16699;SDS011;8466;52.286;21.124;2023-01-01T11:06:23;20.15;;;18.45;;
16699;SDS011;8466;52.286;21.124;2023-01-01T11:08:54;18.50;;;17.05;;
16699;SDS011;8466;52.286;21.124;2023-01-01T11:14:35;18.23;;;16.50;;
16699;SDS011;8466;52.286;21.124;2023-01-01T11:17:05;18.25;;;16.73;;
16699;SDS011;8466;52.286;21.124;2023-01-01T11:19:37;19.00;;;17.25;;
16699;SDS011;8466;52.286;21.124;2023-01-01T11:25:09;19.73;;;17.95;;
16699;SDS011;8466;52.286;21.124;2023-01-01T11:27:45;17.30;;;15.88;;
16699;SDS011;8466;52.286;21.124;2023-01-01T11:30:20;21.25;;;19.02;;
16699;SDS011;8466;52.286;21.124;2023-01-01T11:32:55;18.40;;;16.88;;
16699;SDS011;8466;52.286;21.124;2023-01-01T11:35:28;18.80;;;17.30;;
16699;SDS011;8466;52.286;21.124;2023-01-01T11:37:59;17.52;;;16.27;;
16699;SDS011;8466;52.286;21.124;2023-01-01T11:40:31;16.35;;;14.82;;
16699;SDS011;8466;52.286;21.124;2023-01-01T11:43:04;16.27;;;14.93;;
16699;SDS011;8466;52.286;21.124;2023-01-01T11:45:37;17.90;;;16.20;;
16699;SDS011;8466;52.286;21.124;2023-01-01T11:48:10;16.25;;;14.95;;
16699;SDS011;8466;52.286;21.124;2023-01-01T11:50:47;16.10;;;14.52;;
16699;SDS011;8466;52.286;21.124;2023-01-01T11:53:25;14.85;;;13.38;;
16699;SDS011;8466;52.286;21.124;2023-01-01T11:55:59;13.45;;;12.35;;
16699;SDS011;8466;52.286;21.124;2023-01-01T11:58:37;115.03;;;106.90;;
16699;SDS011;8466;52.286;21.124;2023-01-01T12:01:12;27.50;;;25.60;;
16699;SDS011;8466;52.286;21.124;2023-01-01T12:03:46;15.02;;;13.88;;
16699;SDS011;8466;52.286;21.124;2023-01-01T12:06:22;14.35;;;12.95;;
16699;SDS011;8466;52.286;21.124;2023-01-01T12:08:58;14.77;;;13.48;;
16699;SDS011;8466;52.286;21.124;2023-01-01T12:11:32;15.35;;;13.93;;
16699;SDS011;8466;52.286;21.124;2023-01-01T12:14:11;13.50;;;11.88;;
16699;SDS011;8466;52.286;21.124;2023-01-01T12:16:49;11.18;;;10.18;;
16699;SDS011;8466;52.286;21.124;2023-01-01T12:19:23;12.65;;;11.27;;
16699;SDS011;8466;52.286;21.124;2023-01-01T12:21:56;13.15;;;12.13;;
16699;SDS011;8466;52.286;21.124;2023-01-01T12:24:29;12.88;;;11.73;;
16699;SDS011;8466;52.286;21.124;2023-01-01T12:27:07;16.42;;;10.68;;
16699;SDS011;8466;52.286;21.124;2023-01-01T12:29:47;15.18;;;11.75;;
16699;SDS011;8466;52.286;21.124;2023-01-01T12:32:31;13.52;;;12.15;;
16699;SDS011;8466;52.286;21.124;2023-01-01T12:35:12;14.07;;;12.70;;
16699;SDS011;8466;52.286;21.124;2023-01-01T12:37:50;13.30;;;12.18;;
16699;SDS011;8466;52.286;21.124;2023-01-01T12:43:09;12.50;;;11.30;;
16699;SDS011;8466;52.286;21.124;2023-01-01T12:46:08;13.63;;;12.55;;
16699;SDS011;8466;52.286;21.124;2023-01-01T12:48:49;13.63;;;12.02;;
16699;SDS011;8466;52.286;21.124;2023-01-01T12:51:29;14.55;;;12.30;;
16699;SDS011;8466;52.286;21.124;2023-01-01T12:57:19;11.57;;;10.40;;
16699;SDS011;8466;52.286;21.124;2023-01-01T12:59:56;11.68;;;9.43;;
16699;SDS011;8466;52.286;21.124;2023-01-01T13:02:28;9.95;;;9.02;;
16699;SDS011;8466;52.286;21.124;2023-01-01T13:05:05;13.18;;;9.73;;
16699;SDS011;8466;52.286;21.124;2023-01-01T13:07:42;12.13;;;10.90;;
16699;SDS011;8466;52.286;21.124;2023-01-01T13:10:17;10.85;;;9.77;;
16699;SDS011;8466;52.286;21.124;2023-01-01T13:12:52;10.07;;;9.27;;
16699;SDS011;8466;52.286;21.124;2023-01-01T13:18:23;23.33;;;21.65;;
16699;SDS011;8466;52.286;21.124;2023-01-01T13:20:56;14.25;;;13.27;;
16699;SDS011;8466;52.286;21.124;2023-01-01T13:23:41;11.10;;;10.07;;
16699;SDS011;8466;52.286;21.124;2023-01-01T13:26:30;11.73;;;10.57;;
16699;SDS011;8466;52.286;21.124;2023-01-01T13:32:11;21.23;;;19.75;;
16699;SDS011;8466;52.286;21.124;2023-01-01T13:37:44;576.25;;;533.45;;
16699;SDS011;8466;52.286;21.124;2023-01-01T13:43:26;581.70;;;538.55;;
16699;SDS011;8466;52.286;21.124;2023-01-01T13:45:57;578.28;;;535.85;;
16699;SDS011;8466;52.286;21.124;2023-01-01T13:48:46;561.88;;;520.53;;
16699;SDS011;8466;52.286;21.124;2023-01-01T13:52:11;564.63;;;523.25;;
16699;SDS011;8466;52.286;21.124;2023-01-01T13:58:26;538.95;;;500.77;;
16699;SDS011;8466;52.286;21.124;2023-01-01T14:01:16;507.55;;;469.85;;
16699;SDS011;8466;52.286;21.124;2023-01-01T14:04:11;34.67;;;32.33;;
16699;SDS011;8466;52.286;21.124;2023-01-01T14:06:48;497.08;;;460.90;;
16699;SDS011;8466;52.286;21.124;2023-01-01T14:09:19;446.67;;;417.38;;
16699;SDS011;8466;52.286;21.124;2023-01-01T14:11:48;17.92;;;16.50;;
16699;SDS011;8466;52.286;21.124;2023-01-01T14:14:25;14.27;;;12.93;;
16699;SDS011;8466;52.286;21.124;2023-01-01T14:17:00;14.70;;;12.70;;
16699;SDS011;8466;52.286;21.124;2023-01-01T14:19:32;501.80;;;468.77;;
16699;SDS011;8466;52.286;21.124;2023-01-01T14:22:04;14.63;;;13.32;;
16699;SDS011;8466;52.286;21.124;2023-01-01T14:24:34;16.52;;;14.35;;
16699;SDS011;8466;52.286;21.124;2023-01-01T14:27:10;14.83;;;13.40;;
16699;SDS011;8466;52.286;21.124;2023-01-01T14:29:46;15.00;;;13.63;;
16699;SDS011;8466;52.286;21.124;2023-01-01T14:32:20;15.83;;;14.03;;
16699;SDS011;8466;52.286;21.124;2023-01-01T14:34:57;18.55;;;17.17;;
16699;SDS011;8466;52.286;21.124;2023-01-01T14:37:27;15.77;;;14.63;;
16699;SDS011;8466;52.286;21.124;2023-01-01T14:40:06;16.83;;;15.30;;
16699;SDS011;8466;52.286;21.124;2023-01-01T14:42:42;15.53;;;14.23;;
16699;SDS011;8466;52.286;21.124;2023-01-01T14:45:14;15.23;;;13.97;;
16699;SDS011;8466;52.286;21.124;2023-01-01T14:47:45;16.93;;;15.43;;
16699;SDS011;8466;52.286;21.124;2023-01-01T14:50:18;15.00;;;13.90;;
16699;SDS011;8466;52.286;21.124;2023-01-01T14:52:51;16.23;;;14.57;;
16699;SDS011;8466;52.286;21.124;2023-01-01T14:55:30;16.40;;;14.13;;
16699;SDS011;8466;52.286;21.124;2023-01-01T14:58:01;14.83;;;13.37;;
16699;SDS011;8466;52.286;21.124;2023-01-01T15:00:32;16.30;;;15.10;;
16699;SDS011;8466;52.286;21.124;2023-01-01T15:03:05;16.63;;;14.97;;
16699;SDS011;8466;52.286;21.124;2023-01-01T15:05:39;14.80;;;13.47;;
16699;SDS011;8466;52.286;21.124;2023-01-01T15:08:19;16.37;;;14.90;;
16699;SDS011;8466;52.286;21.124;2023-01-01T15:10:57;16.13;;;14.77;;
16699;SDS011;8466;52.286;21.124;2023-01-01T15:13:30;15.53;;;14.10;;
16699;SDS011;8466;52.286;21.124;2023-01-01T15:19:18;14.23;;;13.17;;
16699;SDS011;8466;52.286;21.124;2023-01-01T15:21:50;14.03;;;12.93;;
16699;SDS011;8466;52.286;21.124;2023-01-01T15:24:19;13.17;;;12.07;;
16699;SDS011;8466;52.286;21.124;2023-01-01T15:26:53;15.87;;;14.17;;